createdAt,value
2023-04-09T00:00:52.286Z,25.63
2023-04-09T00:01:55.496Z,24.35
2023-04-09T00:03:10.106Z,21.27
2023-04-09T00:04:18.431Z,22.17
2023-04-09T00:05:21.932Z,22.85
2023-04-09T00:06:31.629Z,22.92
2023-04-09T00:07:34.616Z,21.48
2023-04-09T00:08:40.934Z,22.13
2023-04-09T00:09:43.816Z,21.13
2023-04-09T00:10:49.235Z,25.30
2023-04-09T00:11:58.427Z,24.38
2023-04-09T00:13:03.893Z,22.30
2023-04-09T00:14:09.902Z,23.60
2023-04-09T00:15:24.009Z,23.38
2023-04-09T00:16:33.626Z,20.83
2023-04-09T00:17:37.107Z,24.10
2023-04-09T00:18:43.205Z,22.73
2023-04-09T00:19:46.158Z,21.67
2023-04-09T00:20:51.987Z,29.95
2023-04-09T00:21:57.874Z,23.13
2023-04-09T00:23:06.549Z,24.13
2023-04-09T00:24:09.523Z,21.52
2023-04-09T00:25:15.490Z,23.55
2023-04-09T00:26:18.115Z,23.55
2023-04-09T00:27:23.261Z,24.35
2023-04-09T00:28:26.277Z,23.60
2023-04-09T00:29:32.248Z,23.95
2023-04-09T00:30:35.350Z,23.95
2023-04-09T00:31:41.230Z,24.00
2023-04-09T00:32:44.601Z,24.20
2023-04-09T00:33:50.456Z,23.13
2023-04-09T00:34:53.702Z,25.40
2023-04-09T00:36:02.090Z,26.33
2023-04-09T00:37:07.715Z,26.30
2023-04-09T00:38:13.643Z,22.67
2023-04-09T00:39:19.773Z,23.17
2023-04-09T00:40:32.886Z,23.60
2023-04-09T00:41:36.307Z,23.48
2023-04-09T00:42:42.226Z,23.70
2023-04-09T00:43:48.075Z,24.70
2023-04-09T00:44:54.374Z,23.10
2023-04-09T00:46:04.082Z,32.13
2023-04-09T00:47:10.206Z,26.02
2023-04-09T00:48:16.769Z,23.05
2023-04-09T00:49:20.244Z,23.92
2023-04-09T00:50:26.047Z,24.30
2023-04-09T00:51:29.665Z,24.10
2023-04-09T00:52:37.781Z,26.13
2023-04-09T00:53:41.159Z,30.17
2023-04-09T00:54:47.597Z,23.05
2023-04-09T00:55:58.968Z,24.02
2023-04-09T00:57:07.046Z,27.05
2023-04-09T00:58:19.357Z,23.38
2023-04-09T00:59:22.278Z,24.67
2023-04-09T01:00:31.491Z,23.63
2023-04-09T01:01:34.251Z,24.15
2023-04-09T01:02:39.742Z,24.15
2023-04-09T01:03:43.369Z,24.08
2023-04-09T01:04:52.516Z,21.73
2023-04-09T01:06:03.193Z,23.55
2023-04-09T01:07:15.058Z,22.60
2023-04-09T01:08:32.638Z,22.08
2023-04-09T01:09:44.467Z,22.85
2023-04-09T01:10:53.356Z,23.15
2023-04-09T01:12:12.937Z,23.88
2023-04-09T01:13:20.796Z,22.75
2023-04-09T01:14:31.441Z,22.83
2023-04-09T01:15:38.491Z,22.20
2023-04-09T01:16:48.221Z,23.85
2023-04-09T01:17:57.237Z,22.17
2023-04-09T01:19:06.327Z,23.00
2023-04-09T01:20:18.778Z,22.98
2023-04-09T01:21:29.889Z,21.63
2023-04-09T01:22:45.374Z,21.75
2023-04-09T01:24:04.314Z,22.88
2023-04-09T01:25:19.363Z,22.50
2023-04-09T01:26:36.018Z,21.80
2023-04-09T01:28:01.329Z,27.02
2023-04-09T01:29:11.120Z,25.52
2023-04-09T01:30:19.578Z,23.17
2023-04-09T01:31:29.176Z,23.23
2023-04-09T01:32:36.962Z,22.65
2023-04-09T01:33:40.868Z,23.08
2023-04-09T01:34:52.416Z,22.05
2023-04-09T01:35:55.787Z,27.30
2023-04-09T01:37:04.886Z,26.20
2023-04-09T01:38:14.596Z,21.55
2023-04-09T01:39:23.677Z,22.90
2023-04-09T01:40:28.024Z,23.17
2023-04-09T01:41:36.187Z,22.25
2023-04-09T01:42:39.933Z,23.30
2023-04-09T01:43:47.270Z,21.67
2023-04-09T01:44:54.214Z,21.83
2023-04-09T01:46:00.512Z,22.95
2023-04-09T01:47:04.440Z,22.10
2023-04-09T01:48:10.557Z,22.60
2023-04-09T01:49:17.097Z,20.85
2023-04-09T01:50:23.207Z,21.23
2023-04-09T01:51:37.776Z,24.05
2023-04-09T01:52:43.567Z,22.27
2023-04-09T01:53:47.100Z,22.55
2023-04-09T01:54:55.804Z,21.42
2023-04-09T01:56:00.207Z,24.45
2023-04-09T01:57:07.112Z,22.17
2023-04-09T01:58:10.348Z,21.63
2023-04-09T01:59:19.179Z,21.65
2023-04-09T02:00:28.170Z,22.70
2023-04-09T02:01:42.473Z,21.48
2023-04-09T02:02:59.514Z,20.42
2023-04-09T02:04:08.472Z,21.50
2023-04-09T02:05:17.594Z,22.20
2023-04-09T02:06:30.370Z,21.00
2023-04-09T02:07:41.381Z,24.33
2023-04-09T02:08:53.447Z,22.40
2023-04-09T02:09:57.728Z,23.15
2023-04-09T02:11:07.877Z,24.38
2023-04-09T02:12:15.588Z,21.48
2023-04-09T02:13:24.488Z,21.20
2023-04-09T02:14:36.217Z,21.73
2023-04-09T02:15:46.811Z,21.23
2023-04-09T02:16:49.869Z,20.55
2023-04-09T02:17:56.301Z,22.00
2023-04-09T02:19:02.108Z,20.23
2023-04-09T02:20:08.746Z,23.23
2023-04-09T02:21:14.015Z,20.65
2023-04-09T02:22:23.228Z,20.92
2023-04-09T02:23:29.769Z,21.38
2023-04-09T02:24:36.709Z,21.30
2023-04-09T02:25:39.754Z,21.48
2023-04-09T02:26:48.123Z,21.00
2023-04-09T02:27:53.872Z,21.45
2023-04-09T02:28:59.941Z,22.38
2023-04-09T02:30:02.075Z,23.77
2023-04-09T02:31:09.668Z,25.35
2023-04-09T02:32:11.999Z,23.23
2023-04-09T02:33:16.879Z,24.58
2023-04-09T02:34:19.115Z,22.08
2023-04-09T02:35:23.987Z,24.35
2023-04-09T02:36:26.707Z,23.73
2023-04-09T02:37:31.579Z,22.15
2023-04-09T02:38:33.700Z,22.35
2023-04-09T02:39:38.560Z,24.85
2023-04-09T02:40:41.504Z,22.13
2023-04-09T02:41:46.520Z,22.27
2023-04-09T02:42:48.680Z,22.52
2023-04-09T02:43:53.438Z,26.20
2023-04-09T02:44:56.006Z,23.95
2023-04-09T02:46:00.779Z,23.15
2023-04-09T02:47:05.611Z,28.40
2023-04-09T02:48:10.593Z,24.27
2023-04-09T02:49:12.801Z,22.48
2023-04-09T02:50:17.646Z,23.38
2023-04-09T02:51:20.568Z,22.27
2023-04-09T02:52:26.236Z,23.58
2023-04-09T02:53:28.474Z,21.83
2023-04-09T02:54:33.284Z,21.35
2023-04-09T02:55:35.642Z,24.15
2023-04-09T02:56:40.539Z,21.63
2023-04-09T02:57:42.734Z,22.45
2023-04-09T02:58:49.792Z,21.30
2023-04-09T02:59:52.120Z,22.55
2023-04-09T03:00:56.945Z,22.55
2023-04-09T03:01:59.407Z,21.85
2023-04-09T03:03:07.362Z,22.58
2023-04-09T03:04:10.205Z,22.13
2023-04-09T03:05:15.504Z,19.85
2023-04-09T03:06:18.788Z,21.67
2023-04-09T03:07:23.912Z,24.00
2023-04-09T03:08:26.125Z,20.30
2023-04-09T03:09:31.376Z,21.08
2023-04-09T03:10:33.588Z,24.25
2023-04-09T03:11:38.471Z,23.58
2023-04-09T03:12:41.078Z,21.58
2023-04-09T03:13:45.960Z,22.25
2023-04-09T03:14:48.388Z,21.52
2023-04-09T03:15:55.043Z,22.00
2023-04-09T03:16:57.216Z,25.63
2023-04-09T03:18:02.124Z,24.33
2023-04-09T03:19:07.027Z,22.63
2023-04-09T03:20:12.496Z,23.35
2023-04-09T03:21:15.143Z,22.13
2023-04-09T03:22:20.103Z,21.40
2023-04-09T03:23:22.351Z,22.42
2023-04-09T03:24:27.522Z,23.27
2023-04-09T03:25:29.766Z,22.05
2023-04-09T03:26:36.696Z,23.15
2023-04-09T03:27:38.958Z,25.30
2023-04-09T03:28:43.750Z,24.40
2023-04-09T03:29:46.140Z,22.95
2023-04-09T03:30:50.983Z,21.67
2023-04-09T03:31:53.419Z,25.88
2023-04-09T03:32:59.665Z,25.63
2023-04-09T03:34:01.813Z,22.98
2023-04-09T03:35:09.833Z,23.08
2023-04-09T03:36:14.687Z,23.83
2023-04-09T03:37:16.848Z,23.08
2023-04-09T03:38:22.274Z,23.42
2023-04-09T03:39:24.537Z,23.52
2023-04-09T03:40:29.352Z,23.42
2023-04-09T03:41:34.186Z,22.55
2023-04-09T03:42:37.653Z,24.10
2023-04-09T03:43:42.726Z,23.30
2023-04-09T03:44:44.940Z,23.25
2023-04-09T03:45:49.878Z,24.10
2023-04-09T03:46:52.126Z,23.30
2023-04-09T03:47:58.100Z,22.98
2023-04-09T03:49:00.852Z,22.48
2023-04-09T03:50:08.704Z,21.52
2023-04-09T03:51:12.723Z,21.25
2023-04-09T03:52:17.585Z,22.65
2023-04-09T03:53:20.086Z,21.23
2023-04-09T03:54:24.966Z,20.50
2023-04-09T03:55:27.427Z,20.50
2023-04-09T03:56:32.222Z,20.85
2023-04-09T03:57:34.449Z,20.73
2023-04-09T03:58:40.152Z,21.02
2023-04-09T03:59:42.481Z,21.20
2023-04-09T04:00:47.240Z,21.63
2023-04-09T04:01:49.805Z,21.60
2023-04-09T04:02:55.002Z,20.27
2023-04-09T04:03:57.654Z,22.40
2023-04-09T04:05:02.606Z,22.65
2023-04-09T04:06:07.940Z,20.50
2023-04-09T04:07:12.982Z,21.25
2023-04-09T04:08:15.305Z,21.58
2023-04-09T04:09:20.052Z,22.02
2023-04-09T04:10:22.286Z,21.30
2023-04-09T04:11:27.306Z,22.38
2023-04-09T04:12:31.430Z,23.25
2023-04-09T04:13:36.332Z,22.77
2023-04-09T04:14:38.580Z,22.23
2023-04-09T04:15:44.255Z,22.38
2023-04-09T04:16:46.529Z,23.02
2023-04-09T04:17:51.427Z,23.80
2023-04-09T04:18:54.064Z,24.05
2023-04-09T04:19:59.325Z,24.23
2023-04-09T04:21:01.622Z,23.60
2023-04-09T04:22:09.165Z,24.48
2023-04-09T04:23:11.520Z,24.02
2023-04-09T04:24:17.153Z,23.65
2023-04-09T04:25:19.759Z,22.73
2023-04-09T04:26:25.071Z,24.80
2023-04-09T04:27:31.226Z,23.27
2023-04-09T04:28:44.032Z,23.60
2023-04-09T04:29:46.455Z,24.08
2023-04-09T04:30:52.031Z,27.92
2023-04-09T04:31:55.684Z,22.30
2023-04-09T04:33:01.341Z,24.60
2023-04-09T04:34:06.883Z,30.58
2023-04-09T04:35:16.058Z,25.90
2023-04-09T04:36:22.614Z,22.23
2023-04-09T04:37:33.987Z,24.92
2023-04-09T04:38:40.347Z,23.80
2023-04-09T04:39:49.725Z,23.05
2023-04-09T04:40:53.213Z,22.83
2023-04-09T04:42:02.069Z,26.23
2023-04-09T04:43:05.449Z,24.55
2023-04-09T04:44:11.817Z,24.70
2023-04-09T04:45:18.893Z,22.88
2023-04-09T04:46:42.005Z,25.23
2023-04-09T04:47:45.236Z,24.83
2023-04-09T04:48:55.249Z,23.40
2023-04-09T04:49:59.016Z,26.92
2023-04-09T04:51:07.627Z,24.08
2023-04-09T04:52:10.081Z,27.00
2023-04-09T04:53:18.080Z,25.15
2023-04-09T04:54:20.306Z,25.88
2023-04-09T04:55:25.502Z,24.95
2023-04-09T04:56:27.932Z,26.13
2023-04-09T04:57:32.856Z,22.85
2023-04-09T04:58:35.060Z,24.45
2023-04-09T04:59:40.753Z,24.13
2023-04-09T05:00:43.007Z,24.60
2023-04-09T05:01:48.068Z,23.48
2023-04-09T05:02:50.576Z,22.70
2023-04-09T05:03:55.968Z,24.27
2023-04-09T05:04:58.595Z,27.55
2023-04-09T05:06:03.532Z,25.80
2023-04-09T05:07:05.981Z,26.75
2023-04-09T05:08:10.934Z,28.23
2023-04-09T05:09:15.908Z,25.08
2023-04-09T05:10:21.268Z,25.45
2023-04-09T05:11:23.727Z,29.52
2023-04-09T05:12:28.701Z,25.65
2023-04-09T05:13:30.922Z,25.00
2023-04-09T05:14:35.798Z,26.48
2023-04-09T05:15:41.596Z,25.60
2023-04-09T05:16:46.603Z,26.73
2023-04-09T05:17:48.930Z,29.02
2023-04-09T05:18:54.167Z,27.58
2023-04-09T05:19:58.180Z,29.17
2023-04-09T05:21:03.012Z,27.15
2023-04-09T05:22:05.341Z,29.05
2023-04-09T05:23:12.778Z,29.75
2023-04-09T05:24:20.656Z,28.15
2023-04-09T05:25:22.904Z,28.15
2023-04-09T05:26:27.858Z,27.35
2023-04-09T05:27:30.610Z,27.65
2023-04-09T05:28:36.216Z,28.85
2023-04-09T05:29:38.376Z,28.33
2023-04-09T05:30:43.433Z,31.63
2023-04-09T05:31:48.460Z,28.98
2023-04-09T05:32:50.903Z,28.92
2023-04-09T05:33:56.085Z,33.33
2023-04-09T05:34:58.313Z,33.72
2023-04-09T05:36:03.266Z,33.13
2023-04-09T05:37:05.577Z,30.73
2023-04-09T05:38:10.898Z,30.95
2023-04-09T05:39:13.154Z,30.83
2023-04-09T05:40:20.859Z,31.38
2023-04-09T05:41:23.045Z,30.52
2023-04-09T05:42:28.041Z,30.15
2023-04-09T05:43:30.672Z,32.03
2023-04-09T05:44:35.935Z,34.08
2023-04-09T05:45:38.289Z,32.63
2023-04-09T05:46:43.233Z,31.90
2023-04-09T05:47:45.550Z,30.42
2023-04-09T05:48:52.415Z,36.60
2023-04-09T05:49:55.112Z,31.50
2023-04-09T05:51:01.038Z,35.00
2023-04-09T05:52:03.594Z,34.97
2023-04-09T05:53:08.750Z,35.85
2023-04-09T05:54:11.071Z,33.05
2023-04-09T05:55:16.172Z,31.63
2023-04-09T05:56:23.006Z,31.70
2023-04-09T05:57:30.448Z,32.13
2023-04-09T05:58:32.793Z,32.05
2023-04-09T05:59:37.680Z,28.10
2023-04-09T06:00:42.598Z,29.67
2023-04-09T06:01:47.566Z,30.05
2023-04-09T06:02:49.885Z,29.58
2023-04-09T06:03:57.743Z,29.65
2023-04-09T06:05:00.907Z,33.85
2023-04-09T06:06:07.870Z,31.85
2023-04-09T06:07:10.185Z,32.67
2023-04-09T06:08:15.156Z,30.48
2023-04-09T06:09:17.405Z,29.80
2023-04-09T06:10:22.734Z,28.95
2023-04-09T06:11:27.968Z,30.73
2023-04-09T06:12:32.960Z,28.60
2023-04-09T06:13:35.206Z,28.23
2023-04-09T06:14:40.278Z,31.08
2023-04-09T06:15:42.648Z,27.80
2023-04-09T06:16:47.629Z,28.05
2023-04-09T06:17:49.903Z,27.65
2023-04-09T06:18:57.178Z,27.40
2023-04-09T06:19:59.734Z,31.25
2023-04-09T06:21:05.566Z,29.45
2023-04-09T06:22:10.632Z,27.85
2023-04-09T06:23:15.543Z,27.10
2023-04-09T06:24:17.832Z,26.98
2023-04-09T06:25:23.059Z,26.17
2023-04-09T06:26:28.006Z,27.00
2023-04-09T06:27:32.959Z,27.30
2023-04-09T06:28:35.209Z,26.05
2023-04-09T06:29:40.144Z,25.38
2023-04-09T06:30:42.461Z,27.90
2023-04-09T06:31:47.729Z,26.27
2023-04-09T06:32:55.274Z,25.52
2023-04-09T06:33:57.766Z,27.70
2023-04-09T06:35:02.458Z,26.58
2023-04-09T06:36:08.300Z,30.30
2023-04-09T06:37:13.483Z,30.35
2023-04-09T06:38:15.937Z,25.23
2023-04-09T06:39:20.956Z,24.92
2023-04-09T06:40:23.550Z,26.33
2023-04-09T06:41:31.108Z,24.73
2023-04-09T06:42:33.486Z,24.75
2023-04-09T06:43:39.158Z,27.73
2023-04-09T06:44:44.122Z,24.83
2023-04-09T06:45:46.543Z,25.05
2023-04-09T06:46:52.082Z,25.90
2023-04-09T06:47:57.236Z,24.80
2023-04-09T06:48:59.676Z,27.88
2023-04-09T06:50:04.815Z,27.95
2023-04-09T06:51:10.744Z,27.88
2023-04-09T06:52:13.118Z,24.98
2023-04-09T06:53:18.550Z,25.17
2023-04-09T06:54:21.333Z,25.90
2023-04-09T06:55:27.400Z,24.45
2023-04-09T06:56:35.121Z,24.08
2023-04-09T06:57:38.740Z,22.73
2023-04-09T06:58:44.050Z,24.60
2023-04-09T06:59:46.581Z,23.83
2023-04-09T07:00:51.880Z,24.08
2023-04-09T07:01:54.728Z,28.80
2023-04-09T07:02:59.943Z,31.05
2023-04-09T07:04:05.258Z,31.40
2023-04-09T07:05:08.145Z,30.17
2023-04-09T07:06:13.549Z,29.48
2023-04-09T07:07:16.057Z,28.35
2023-04-09T07:08:23.293Z,24.02
2023-04-09T07:09:25.742Z,25.27
2023-04-09T07:10:30.790Z,26.73
2023-04-09T07:11:38.486Z,26.40
2023-04-09T07:12:40.857Z,24.70
2023-04-09T07:13:45.960Z,23.23
2023-04-09T07:14:48.284Z,23.90
2023-04-09T07:15:53.325Z,25.52
2023-04-09T07:16:58.281Z,24.20
2023-04-09T07:18:03.320Z,27.15
2023-04-09T07:19:07.717Z,26.70
2023-04-09T07:20:14.065Z,24.73
2023-04-09T07:21:19.492Z,23.92
2023-04-09T07:22:22.308Z,23.63
2023-04-09T07:23:27.467Z,23.25
2023-04-09T07:24:32.838Z,27.92
2023-04-09T07:25:35.068Z,27.85
2023-04-09T07:26:42.965Z,24.90
2023-04-09T07:27:48.422Z,24.50
2023-04-09T07:28:53.561Z,23.35
2023-04-09T07:29:56.584Z,23.38
2023-04-09T07:31:02.925Z,26.52
2023-04-09T07:32:05.736Z,30.20
2023-04-09T07:33:10.898Z,24.45
2023-04-09T07:34:15.954Z,27.55
2023-04-09T07:35:19.026Z,23.60
2023-04-09T07:36:24.280Z,20.77
2023-04-09T07:37:29.652Z,20.08
2023-04-09T07:38:35.155Z,23.10
2023-04-09T07:39:37.634Z,22.23
2023-04-09T07:40:42.781Z,26.05
2023-04-09T07:41:48.900Z,20.02
2023-04-09T07:42:54.319Z,21.25
2023-04-09T07:43:56.957Z,24.10
2023-04-09T07:45:03.680Z,24.20
2023-04-09T07:46:08.808Z,24.77
2023-04-09T07:47:13.858Z,25.40
2023-04-09T07:48:18.978Z,20.20
2023-04-09T07:49:24.053Z,21.70
2023-04-09T07:50:29.224Z,23.42
2023-04-09T07:51:31.767Z,22.42
2023-04-09T07:52:36.673Z,19.02
2023-04-09T07:53:38.925Z,23.10
2023-04-09T07:54:43.866Z,21.15
2023-04-09T07:55:48.867Z,19.15
2023-04-09T07:56:53.978Z,22.95
2023-04-09T07:57:59.268Z,22.25
2023-04-09T07:59:01.503Z,22.73
2023-04-09T08:00:07.177Z,25.67
2023-04-09T08:01:12.138Z,21.77
2023-04-09T08:02:15.518Z,20.45
2023-04-09T08:03:20.791Z,20.52
2023-04-09T08:04:23.476Z,20.33
2023-04-09T08:05:29.224Z,20.92
2023-04-09T08:06:34.402Z,18.45
2023-04-09T08:07:39.600Z,17.33
2023-04-09T08:08:44.479Z,18.75
2023-04-09T08:09:51.560Z,17.48
2023-04-09T08:10:57.381Z,18.27
2023-04-09T08:12:02.584Z,21.23
2023-04-09T08:13:08.733Z,23.33
2023-04-09T08:14:13.323Z,20.90
2023-04-09T08:15:18.318Z,18.23
2023-04-09T08:16:21.632Z,18.83
2023-04-09T08:17:27.942Z,17.63
2023-04-09T08:18:30.399Z,16.73
2023-04-09T08:19:36.463Z,17.25
2023-04-09T08:20:45.439Z,17.20
2023-04-09T08:21:51.666Z,19.10
2023-04-09T08:22:56.987Z,21.00
2023-04-09T08:24:01.688Z,20.50
2023-04-09T08:25:07.280Z,21.73
2023-04-09T08:26:12.663Z,23.48
2023-04-09T08:27:20.426Z,20.35
2023-04-09T08:28:25.380Z,19.55
2023-04-09T08:29:30.684Z,18.52
2023-04-09T08:30:34.566Z,18.27
2023-04-09T08:31:39.789Z,16.85
2023-04-09T08:32:44.961Z,15.45
2023-04-09T08:33:47.389Z,17.55
2023-04-09T08:34:52.297Z,18.00
2023-04-09T08:35:54.631Z,22.25
2023-04-09T08:37:01.557Z,26.90
2023-04-09T08:38:09.953Z,32.03
2023-04-09T08:43:56.219Z,19.25
2023-04-09T08:45:15.853Z,19.75
2023-04-09T08:46:28.712Z,20.10
2023-04-09T08:47:37.105Z,19.83
2023-04-09T08:48:50.136Z,16.17
2023-04-09T08:51:39.862Z,26.42
2023-04-09T08:53:12.329Z,29.02
2023-04-09T08:55:52.680Z,22.40
2023-04-09T08:56:58.490Z,20.65
2023-04-09T08:58:09.967Z,19.00
2023-04-09T08:59:44.561Z,22.77
2023-04-09T09:05:32.543Z,19.98
2023-04-09T09:07:08.913Z,22.42
2023-04-09T09:10:04.848Z,22.35
2023-04-09T09:11:30.816Z,21.33
2023-04-09T09:12:47.587Z,19.30
2023-04-09T09:14:07.731Z,21.15
2023-04-09T09:15:33.737Z,21.90
2023-04-09T09:18:59.433Z,16.30
2023-04-09T09:20:50.972Z,19.30
2023-04-09T09:30:43.516Z,24.48
2023-04-09T09:32:39.094Z,39.17
2023-04-09T09:35:50.829Z,22.48
2023-04-09T09:39:41.104Z,17.40
2023-04-09T09:41:24.258Z,12.48
2023-04-09T09:49:31.042Z,11.57
2023-04-09T09:53:28.292Z,10.55
2023-04-09T09:55:43.969Z,12.95
2023-04-09T09:57:31.737Z,13.02
2023-04-09T10:02:05.380Z,19.40
2023-04-09T10:10:58.713Z,12.55
2023-04-09T10:13:10.420Z,13.10
2023-04-09T10:21:52.728Z,12.32
2023-04-09T10:23:57.152Z,11.30
2023-04-09T10:30:13.643Z,10.90
2023-04-09T10:32:20.814Z,12.95
2023-04-09T10:34:35.251Z,9.32
2023-04-09T10:40:42.035Z,11.77
2023-04-09T10:56:11.576Z,13.65
2023-04-09T11:02:06.832Z,8.43
2023-04-09T11:21:23.150Z,8.57
2023-04-09T11:25:17.350Z,6.60
2023-04-09T11:27:06.618Z,11.15
2023-04-09T11:29:04.422Z,8.85
2023-04-09T11:30:42.529Z,8.82
2023-04-09T11:31:55.463Z,9.45
2023-04-09T11:34:38.959Z,12.60
2023-04-09T11:36:28.370Z,15.00
2023-04-09T11:38:30.730Z,9.57
2023-04-09T11:46:51.650Z,10.00
2023-04-09T11:48:35.887Z,8.55
2023-04-09T11:52:29.080Z,9.48
2023-04-09T11:58:08.679Z,9.90
2023-04-09T11:59:59.827Z,9.45
2023-04-09T12:01:25.081Z,10.13
2023-04-09T12:05:33.801Z,8.82
2023-04-09T12:18:34.170Z,12.48
2023-04-09T12:25:13.424Z,10.15
2023-04-09T12:31:12.924Z,9.13
2023-04-09T12:35:01.646Z,10.32
2023-04-09T12:36:46.882Z,9.82
2023-04-09T12:42:25.489Z,11.38
2023-04-09T12:44:32.549Z,48.97
2023-04-09T12:46:24.307Z,37.47
2023-04-09T12:48:00.036Z,22.48
2023-04-09T12:49:44.962Z,10.23
2023-04-09T12:54:20.382Z,15.43
2023-04-09T12:55:52.011Z,15.45
2023-04-09T12:57:38.000Z,13.07
2023-04-09T13:08:44.753Z,11.30
2023-04-09T13:10:52.562Z,9.55
2023-04-09T13:13:06.410Z,10.20
2023-04-09T13:14:33.982Z,9.60
2023-04-09T13:16:10.642Z,10.00
2023-04-09T13:17:57.304Z,9.85
2023-04-09T13:21:34.415Z,12.40
2023-04-09T13:23:33.062Z,10.38
2023-04-09T13:24:39.930Z,9.55
2023-04-09T13:26:03.734Z,10.57
2023-04-09T13:31:25.425Z,10.88
2023-04-09T13:38:16.139Z,8.25
2023-04-09T13:41:37.390Z,8.50
2023-04-09T13:43:08.711Z,8.48
2023-04-09T13:49:27.164Z,11.85
2023-04-09T13:53:38.841Z,10.35
2023-04-09T13:55:18.037Z,9.90
2023-04-09T14:04:03.525Z,10.98
2023-04-09T14:05:47.391Z,11.60
2023-04-09T14:11:25.990Z,11.30
2023-04-09T14:14:37.586Z,11.40
2023-04-09T14:21:35.984Z,11.00
2023-04-09T14:25:24.928Z,10.98
2023-04-09T14:30:24.269Z,8.80
2023-04-09T14:36:41.469Z,9.40
2023-04-09T14:38:35.506Z,8.95
2023-04-09T14:42:55.742Z,12.75
2023-04-09T14:52:34.962Z,8.48
2023-04-09T14:54:20.553Z,10.95
2023-04-09T14:55:50.699Z,9.20
2023-04-09T14:57:56.511Z,10.45
2023-04-09T15:01:33.998Z,8.48
2023-04-09T15:03:19.657Z,8.93
2023-04-09T15:06:51.104Z,9.75
2023-04-09T15:10:40.787Z,9.90
2023-04-09T15:12:20.564Z,8.85
2023-04-09T15:13:49.669Z,11.73
2023-04-09T15:17:38.602Z,9.00
2023-04-09T15:24:17.866Z,10.43
2023-04-09T15:25:54.091Z,9.35
2023-04-09T15:27:41.480Z,8.95
2023-04-09T15:29:18.557Z,8.82
2023-04-09T15:40:32.439Z,11.57
2023-04-09T15:44:01.100Z,13.10
2023-04-09T15:45:55.470Z,8.63
2023-04-09T15:47:33.161Z,10.38
2023-04-09T15:49:06.171Z,9.85
2023-04-09T15:50:59.569Z,10.07
2023-04-09T15:52:34.097Z,9.57
2023-04-09T15:54:22.876Z,10.15
2023-04-09T15:55:56.935Z,11.20
2023-04-09T15:57:18.925Z,16.25
2023-04-09T16:11:14.126Z,9.48
2023-04-09T16:12:43.592Z,9.55
2023-04-09T16:14:33.608Z,10.10
2023-04-09T16:16:53.394Z,11.83
2023-04-09T16:19:30.201Z,13.75
2023-04-09T16:20:32.848Z,18.70
2023-04-09T16:21:46.247Z,15.00
2023-04-09T16:22:52.772Z,15.05
2023-04-09T16:23:55.315Z,13.93
2023-04-09T16:25:00.541Z,14.10
2023-04-09T16:26:02.941Z,14.40
2023-04-09T16:27:08.165Z,13.95
2023-04-09T16:28:10.686Z,14.13
2023-04-09T16:29:18.750Z,13.63
2023-04-09T16:30:21.458Z,16.00
2023-04-09T16:31:26.525Z,17.10
2023-04-09T16:32:34.387Z,17.50
2023-04-09T16:33:36.948Z,14.65
2023-04-09T16:34:44.653Z,18.13
2023-04-09T16:35:47.259Z,14.40
2023-04-09T16:36:52.390Z,13.20
2023-04-09T16:37:54.847Z,12.20
2023-04-09T16:39:07.737Z,13.88
2023-04-09T16:40:10.778Z,15.25
2023-04-09T16:41:15.968Z,15.30
2023-04-09T16:42:25.586Z,17.55
2023-04-09T16:43:27.843Z,20.00
2023-04-09T16:44:33.292Z,20.80
2023-04-09T16:45:35.919Z,18.52
2023-04-09T16:46:46.996Z,19.63
2023-04-09T16:47:55.068Z,18.02
2023-04-09T16:49:02.717Z,16.45
2023-04-09T16:50:12.692Z,16.60
2023-04-09T16:51:19.146Z,19.95
2023-04-09T16:52:24.172Z,15.55
2023-04-09T16:53:26.997Z,18.95
2023-04-09T16:54:33.405Z,17.40
2023-04-09T16:55:36.125Z,17.88
2023-04-09T16:56:41.108Z,20.25
2023-04-09T16:57:43.414Z,15.55
2023-04-09T16:58:50.033Z,13.90
2023-04-09T16:59:54.163Z,16.73
2023-04-09T17:01:00.861Z,15.25
2023-04-09T17:02:03.267Z,19.25
2023-04-09T17:03:15.764Z,14.95
2023-04-09T17:04:20.994Z,15.80
2023-04-09T17:05:24.724Z,14.40
2023-04-09T17:06:29.948Z,15.25
2023-04-09T17:07:32.389Z,14.68
2023-04-09T17:08:46.063Z,18.67
2023-04-09T17:09:48.491Z,15.98
2023-04-09T17:11:02.471Z,20.80
2023-04-09T17:12:04.898Z,20.23
2023-04-09T17:13:10.499Z,15.60
2023-04-09T17:14:14.605Z,17.77
2023-04-09T17:15:19.537Z,16.65
2023-04-09T17:16:22.931Z,16.80
2023-04-09T17:17:28.417Z,15.35
2023-04-09T17:18:38.587Z,24.55
2023-04-09T17:19:42.884Z,20.50
2023-04-09T17:20:48.569Z,14.45
2023-04-09T17:21:53.571Z,21.70
2023-04-09T17:22:56.139Z,19.95
2023-04-09T17:24:03.460Z,19.40
2023-04-09T17:25:06.782Z,20.77
2023-04-09T17:26:17.030Z,23.52
2023-04-09T17:27:22.586Z,17.45
2023-04-09T17:28:29.234Z,23.02
2023-04-09T17:29:38.495Z,24.25
2023-04-09T17:30:43.850Z,20.13
2023-04-09T17:31:51.117Z,19.85
2023-04-09T17:33:00.075Z,23.67
2023-04-09T17:34:08.877Z,20.48
2023-04-09T17:35:12.523Z,22.13
2023-04-09T17:36:21.298Z,23.95
2023-04-09T17:37:31.260Z,23.80
2023-04-09T17:38:39.537Z,26.67
2023-04-09T17:39:51.569Z,27.52
2023-04-09T17:41:01.059Z,21.33
2023-04-09T17:42:09.888Z,23.35
2023-04-09T17:43:17.777Z,28.90
2023-04-09T17:44:23.240Z,19.83
2023-04-09T17:45:30.151Z,26.58
2023-04-09T17:46:34.658Z,26.90
2023-04-09T17:47:40.133Z,26.50
2023-04-09T17:48:42.386Z,26.20
2023-04-09T17:49:53.823Z,25.23
2023-04-09T17:50:59.173Z,24.30
2023-04-09T17:52:02.659Z,28.77
2023-04-09T17:53:08.137Z,25.98
2023-04-09T17:54:10.619Z,29.80
2023-04-09T17:55:18.207Z,31.20
2023-04-09T17:56:26.467Z,30.13
2023-04-09T17:57:32.562Z,33.88
2023-04-09T17:58:37.734Z,39.50
2023-04-09T17:59:43.639Z,48.95
2023-04-09T18:00:45.983Z,30.98
2023-04-09T18:01:51.616Z,25.38
2023-04-09T18:02:57.817Z,24.08
2023-04-09T18:04:04.585Z,27.52
2023-04-09T18:05:13.417Z,20.90
2023-04-09T18:06:18.931Z,21.85
2023-04-09T18:07:25.359Z,106.05
2023-04-09T18:08:29.232Z,29.20
2023-04-09T18:09:34.983Z,31.33
2023-04-09T18:10:42.882Z,31.70
2023-04-09T18:11:46.149Z,30.27
2023-04-09T18:12:51.586Z,31.40
2023-04-09T18:14:00.162Z,30.40
2023-04-09T18:15:02.341Z,24.95
2023-04-09T18:16:11.922Z,24.42
2023-04-09T18:17:17.582Z,28.23
2023-04-09T18:18:21.116Z,27.83
2023-04-09T18:19:26.396Z,28.80
2023-04-09T18:20:36.790Z,26.38
2023-04-09T18:21:39.107Z,35.35
2023-04-09T18:22:44.283Z,34.97
2023-04-09T18:23:46.767Z,35.60
2023-04-09T18:24:52.328Z,33.80
2023-04-09T18:25:55.100Z,35.58
2023-04-09T18:27:07.009Z,31.75
2023-04-09T18:28:09.632Z,25.90
2023-04-09T18:29:14.817Z,28.27
2023-04-09T18:30:17.172Z,29.25
2023-04-09T18:31:22.493Z,31.38
2023-04-09T18:32:26.152Z,29.13
2023-04-09T18:33:33.539Z,28.80
2023-04-09T18:34:38.473Z,29.42
2023-04-09T18:35:46.552Z,31.08
2023-04-09T18:36:51.433Z,24.92
2023-04-09T18:37:56.412Z,26.55
2023-04-09T18:38:58.907Z,26.20
2023-04-09T18:40:09.116Z,24.88
2023-04-09T18:41:16.876Z,30.42
2023-04-09T18:42:22.076Z,29.90
2023-04-09T18:43:26.543Z,25.17
2023-04-09T18:44:34.012Z,29.67
2023-04-09T18:45:39.734Z,25.48
2023-04-09T18:46:44.651Z,31.23
2023-04-09T18:47:46.903Z,31.85
2023-04-09T18:48:52.123Z,26.08
2023-04-09T18:49:54.523Z,34.38
2023-04-09T18:51:05.424Z,27.38
2023-04-09T18:52:10.962Z,26.60
2023-04-09T18:53:13.255Z,27.17
2023-04-09T18:54:18.789Z,29.38
2023-04-09T18:55:21.101Z,29.48
2023-04-09T18:56:26.408Z,29.67
2023-04-09T18:57:28.620Z,32.65
2023-04-09T18:58:36.275Z,38.75
2023-04-09T18:59:40.324Z,34.55
2023-04-09T19:00:50.881Z,35.10
2023-04-09T19:01:53.489Z,30.17
2023-04-09T19:02:58.458Z,30.20
2023-04-09T19:04:05.984Z,32.22
2023-04-09T19:05:14.950Z,26.90
2023-04-09T19:06:25.833Z,28.05
2023-04-09T19:07:28.271Z,28.73
2023-04-09T19:08:51.892Z,26.60
2023-04-09T19:09:57.853Z,29.02
2023-04-09T19:11:00.005Z,30.25
2023-04-09T19:12:05.368Z,31.30
2023-04-09T19:13:14.530Z,28.30
2023-04-09T19:14:19.903Z,30.58
2023-04-09T19:15:32.582Z,29.38
2023-04-09T19:16:37.797Z,30.50
2023-04-09T19:17:40.600Z,31.67
2023-04-09T19:18:45.757Z,32.35
2023-04-09T19:19:52.849Z,29.95
2023-04-09T19:20:58.308Z,26.23
2023-04-09T19:22:06.233Z,25.95
2023-04-09T19:23:08.526Z,25.30
2023-04-09T19:24:13.385Z,27.58
2023-04-09T19:25:16.451Z,31.17
2023-04-09T19:26:22.432Z,27.73
2023-04-09T19:27:24.921Z,33.15
2023-04-09T19:28:30.800Z,30.95
2023-04-09T19:29:36.604Z,28.98
2023-04-09T19:30:41.656Z,41.35